KBBW

Broken Bow Municipal / Keith Glaze Field Airport

Broken Bow, Nebraska, USA
METAR KBBW 250013Z AUTO 34019G28KT 10SM BKN008 OVC014 04/02 A3031 RMK AO2 PK WND 35028/0011 CIG 006V013 T00390022
Observed Flight Rules
Apr-25 @ 00:13 UTC (36 minutes ago) Instrument Flight Rules
Wind Visibility Clouds
340° at 19 knots
 Gusting to 28 knots
10 miles
  • Broken at 800' AGL
  • Overcast at 1,400' AGL
Temperatures Readings
Current 4°C / 39°F
Dewpoint 2°C / 36°F
Humidity 87%
Altimeter 30.31" Hg
Pressure 1026 hPa
Elevation 776
METAR KBBW 250013Z AUTO 34019G28KT 10SM BKN008 OVC014 04/02 A3031 RMK AO2 PK WND 35028/0011 CIG 006V013 T00390022
Observed Flight Rules
Apr-25 @ 00:13 UTC
(36 minutes ago)
IFR
Wind Visibility
340° at 19 knots
 Gusting to 28 knots
10 miles
Clouds
  • Broken at 800' AGL
  • Overcast at 1,400' AGL
Temperature Dewpoint
4°C / 39°F 2°C / 36°F
Humidity Altimeter Pressure
87% 30.31" Hg 1026 hPa